Terminal Aerodrome Forecast
Issued by NWS Tulsa, OK

Home | Current Version | Previous Version | Text Only | Print | Product List | Glossary On
Versions: 1 2 3 4 5 6 7 8 9 10 11 12 13 14 15 16 17 18 19 20
000
FTUS44 KTSA 221100
TAFFSM
TAF
KFSM 221120Z 2212/2312 06005KT P6SM OVC025
     FM221400 12007KT 5SM BR OVC015
     FM221800 22010KT P6SM OVC025
     FM222200 27012KT P6SM BKN025
     FM230100 29007KT P6SM SCT030 BKN250=

USA.gov is the U.S. government's official web portal to all federal, state and local government web resources and services.